sensor_id;sensor_type;location;lat;lon;timestamp;P1;durP1;ratioP1;P2;durP2;ratioP2
39540;SDS011;25219;52.244;21.006;2022-09-09T00:00:31;10.30;;;4.80;;
39540;SDS011;25219;52.244;21.006;2022-09-09T00:03:01;12.45;;;4.78;;
39540;SDS011;25219;52.244;21.006;2022-09-09T00:05:36;10.93;;;4.50;;
39540;SDS011;25219;52.244;21.006;2022-09-09T00:08:03;12.77;;;5.47;;
39540;SDS011;25219;52.244;21.006;2022-09-09T00:10:37;13.95;;;5.57;;
39540;SDS011;25219;52.244;21.006;2022-09-09T00:13:16;10.55;;;5.50;;
39540;SDS011;25219;52.244;21.006;2022-09-09T00:21:03;13.00;;;5.00;;
39540;SDS011;25219;52.244;21.006;2022-09-09T00:23:32;16.25;;;5.28;;
39540;SDS011;25219;52.244;21.006;2022-09-09T00:26:07;12.85;;;5.88;;
39540;SDS011;25219;52.244;21.006;2022-09-09T00:28:36;16.50;;;5.80;;
39540;SDS011;25219;52.244;21.006;2022-09-09T00:31:10;9.40;;;5.50;;
39540;SDS011;25219;52.244;21.006;2022-09-09T00:33:35;13.55;;;5.50;;
39540;SDS011;25219;52.244;21.006;2022-09-09T00:36:01;11.13;;;5.38;;
39540;SDS011;25219;52.244;21.006;2022-09-09T00:38:35;12.57;;;5.55;;
39540;SDS011;25219;52.244;21.006;2022-09-09T00:43:30;14.10;;;5.93;;
39540;SDS011;25219;52.244;21.006;2022-09-09T00:45:59;14.60;;;6.38;;
39540;SDS011;25219;52.244;21.006;2022-09-09T00:48:31;14.68;;;6.25;;
39540;SDS011;25219;52.244;21.006;2022-09-09T00:51:02;12.40;;;6.03;;
39540;SDS011;25219;52.244;21.006;2022-09-09T00:58:33;16.80;;;5.65;;
39540;SDS011;25219;52.244;21.006;2022-09-09T01:01:06;11.30;;;5.80;;
39540;SDS011;25219;52.244;21.006;2022-09-09T01:03:45;17.83;;;5.47;;
39540;SDS011;25219;52.244;21.006;2022-09-09T01:06:14;16.10;;;6.07;;
39540;SDS011;25219;52.244;21.006;2022-09-09T01:11:25;14.82;;;6.40;;
39540;SDS011;25219;52.244;21.006;2022-09-09T01:16:35;13.80;;;6.38;;
39540;SDS011;25219;52.244;21.006;2022-09-09T01:19:00;12.40;;;5.95;;
39540;SDS011;25219;52.244;21.006;2022-09-09T01:21:33;14.25;;;6.40;;
39540;SDS011;25219;52.244;21.006;2022-09-09T01:28:59;14.18;;;6.30;;
39540;SDS011;25219;52.244;21.006;2022-09-09T01:33:53;11.10;;;6.20;;
39540;SDS011;25219;52.244;21.006;2022-09-09T01:38:43;13.32;;;6.50;;
39540;SDS011;25219;52.244;21.006;2022-09-09T01:41:08;11.30;;;6.57;;
39540;SDS011;25219;52.244;21.006;2022-09-09T01:43:34;10.13;;;6.25;;
39540;SDS011;25219;52.244;21.006;2022-09-09T01:46:00;13.53;;;6.77;;
39540;SDS011;25219;52.244;21.006;2022-09-09T01:48:25;14.75;;;6.95;;
39540;SDS011;25219;52.244;21.006;2022-09-09T01:50:51;11.93;;;6.13;;
39540;SDS011;25219;52.244;21.006;2022-09-09T01:53:17;12.17;;;6.03;;
39540;SDS011;25219;52.244;21.006;2022-09-09T01:55:45;16.92;;;6.78;;
39540;SDS011;25219;52.244;21.006;2022-09-09T02:00:46;11.60;;;6.25;;
39540;SDS011;25219;52.244;21.006;2022-09-09T02:03:19;11.50;;;6.30;;
39540;SDS011;25219;52.244;21.006;2022-09-09T02:05:48;15.15;;;6.78;;
39540;SDS011;25219;52.244;21.006;2022-09-09T02:08:21;13.23;;;7.28;;
39540;SDS011;25219;52.244;21.006;2022-09-09T02:13:32;12.13;;;7.25;;
39540;SDS011;25219;52.244;21.006;2022-09-09T02:21:08;12.38;;;5.85;;
39540;SDS011;25219;52.244;21.006;2022-09-09T02:23:35;14.07;;;6.82;;
39540;SDS011;25219;52.244;21.006;2022-09-09T02:26:00;12.60;;;7.13;;
39540;SDS011;25219;52.244;21.006;2022-09-09T02:28:27;13.70;;;6.43;;
39540;SDS011;25219;52.244;21.006;2022-09-09T02:30:53;12.20;;;6.90;;
39540;SDS011;25219;52.244;21.006;2022-09-09T02:33:20;15.00;;;6.85;;
39540;SDS011;25219;52.244;21.006;2022-09-09T02:35:46;13.80;;;6.70;;
39540;SDS011;25219;52.244;21.006;2022-09-09T02:38:13;13.15;;;7.28;;
39540;SDS011;25219;52.244;21.006;2022-09-09T02:40:39;14.40;;;6.65;;
39540;SDS011;25219;52.244;21.006;2022-09-09T02:43:05;16.30;;;7.77;;
39540;SDS011;25219;52.244;21.006;2022-09-09T02:45:36;13.43;;;6.50;;
39540;SDS011;25219;52.244;21.006;2022-09-09T02:51:02;15.70;;;8.13;;
39540;SDS011;25219;52.244;21.006;2022-09-09T02:53:39;13.48;;;7.07;;
39540;SDS011;25219;52.244;21.006;2022-09-09T02:56:05;14.07;;;7.38;;
39540;SDS011;25219;52.244;21.006;2022-09-09T02:58:34;10.93;;;6.95;;
39540;SDS011;25219;52.244;21.006;2022-09-09T03:00:59;16.55;;;8.18;;
39540;SDS011;25219;52.244;21.006;2022-09-09T03:03:26;16.17;;;7.72;;
39540;SDS011;25219;52.244;21.006;2022-09-09T03:05:52;13.95;;;7.65;;
39540;SDS011;25219;52.244;21.006;2022-09-09T03:08:17;15.48;;;7.72;;
39540;SDS011;25219;52.244;21.006;2022-09-09T03:10:42;15.80;;;7.75;;
39540;SDS011;25219;52.244;21.006;2022-09-09T03:13:08;15.83;;;8.23;;
39540;SDS011;25219;52.244;21.006;2022-09-09T03:15:33;14.63;;;7.57;;
39540;SDS011;25219;52.244;21.006;2022-09-09T03:17:58;12.88;;;7.57;;
39540;SDS011;25219;52.244;21.006;2022-09-09T03:20:24;14.55;;;8.13;;
39540;SDS011;25219;52.244;21.006;2022-09-09T03:22:51;14.93;;;7.55;;
39540;SDS011;25219;52.244;21.006;2022-09-09T03:25:16;14.80;;;8.07;;
39540;SDS011;25219;52.244;21.006;2022-09-09T03:27:41;19.60;;;7.78;;
39540;SDS011;25219;52.244;21.006;2022-09-09T03:30:06;14.27;;;7.83;;
39540;SDS011;25219;52.244;21.006;2022-09-09T03:32:32;13.20;;;7.82;;
39540;SDS011;25219;52.244;21.006;2022-09-09T03:34:57;11.90;;;7.23;;
39540;SDS011;25219;52.244;21.006;2022-09-09T03:37:22;14.48;;;7.45;;
39540;SDS011;25219;52.244;21.006;2022-09-09T03:39:47;16.73;;;7.47;;
39540;SDS011;25219;52.244;21.006;2022-09-09T03:42:13;14.68;;;7.97;;
39540;SDS011;25219;52.244;21.006;2022-09-09T03:44:45;13.70;;;7.07;;
39540;SDS011;25219;52.244;21.006;2022-09-09T03:47:18;12.48;;;6.85;;
39540;SDS011;25219;52.244;21.006;2022-09-09T03:49:44;12.50;;;6.93;;
39540;SDS011;25219;52.244;21.006;2022-09-09T03:52:09;11.65;;;7.10;;
39540;SDS011;25219;52.244;21.006;2022-09-09T03:54:34;14.57;;;6.85;;
39540;SDS011;25219;52.244;21.006;2022-09-09T03:57:00;11.43;;;6.72;;
39540;SDS011;25219;52.244;21.006;2022-09-09T03:59:25;11.17;;;6.47;;
39540;SDS011;25219;52.244;21.006;2022-09-09T04:01:51;10.45;;;6.10;;
39540;SDS011;25219;52.244;21.006;2022-09-09T04:04:16;11.57;;;6.50;;
39540;SDS011;25219;52.244;21.006;2022-09-09T04:06:41;12.93;;;6.70;;
39540;SDS011;25219;52.244;21.006;2022-09-09T04:09:06;12.88;;;6.68;;
39540;SDS011;25219;52.244;21.006;2022-09-09T04:11:31;11.07;;;6.43;;
39540;SDS011;25219;52.244;21.006;2022-09-09T04:13:57;10.80;;;6.17;;
39540;SDS011;25219;52.244;21.006;2022-09-09T04:16:22;8.32;;;5.68;;
39540;SDS011;25219;52.244;21.006;2022-09-09T04:18:47;10.70;;;6.20;;
39540;SDS011;25219;52.244;21.006;2022-09-09T04:21:13;9.95;;;6.47;;
39540;SDS011;25219;52.244;21.006;2022-09-09T04:23:38;17.30;;;6.17;;
39540;SDS011;25219;52.244;21.006;2022-09-09T04:26:04;12.80;;;6.32;;
39540;SDS011;25219;52.244;21.006;2022-09-09T04:28:30;11.23;;;6.18;;
39540;SDS011;25219;52.244;21.006;2022-09-09T04:30:56;8.15;;;5.53;;
39540;SDS011;25219;52.244;21.006;2022-09-09T04:33:23;9.98;;;5.40;;
39540;SDS011;25219;52.244;21.006;2022-09-09T04:35:49;9.00;;;5.75;;
39540;SDS011;25219;52.244;21.006;2022-09-09T04:38:15;7.90;;;5.13;;
39540;SDS011;25219;52.244;21.006;2022-09-09T04:40:45;9.23;;;5.47;;
39540;SDS011;25219;52.244;21.006;2022-09-09T04:43:11;13.18;;;5.53;;
39540;SDS011;25219;52.244;21.006;2022-09-09T04:45:37;8.27;;;5.30;;
39540;SDS011;25219;52.244;21.006;2022-09-09T04:48:02;7.73;;;4.80;;
39540;SDS011;25219;52.244;21.006;2022-09-09T04:50:27;9.90;;;5.50;;
39540;SDS011;25219;52.244;21.006;2022-09-09T04:52:53;8.60;;;5.18;;
39540;SDS011;25219;52.244;21.006;2022-09-09T04:55:18;9.18;;;5.28;;
39540;SDS011;25219;52.244;21.006;2022-09-09T04:57:43;10.57;;;4.83;;
39540;SDS011;25219;52.244;21.006;2022-09-09T05:00:09;7.97;;;5.23;;
39540;SDS011;25219;52.244;21.006;2022-09-09T05:02:38;15.00;;;5.63;;
39540;SDS011;25219;52.244;21.006;2022-09-09T05:05:04;9.18;;;5.00;;
39540;SDS011;25219;52.244;21.006;2022-09-09T05:07:29;6.50;;;4.65;;
39540;SDS011;25219;52.244;21.006;2022-09-09T05:09:56;8.48;;;4.80;;
39540;SDS011;25219;52.244;21.006;2022-09-09T05:12:21;8.73;;;4.88;;
39540;SDS011;25219;52.244;21.006;2022-09-09T05:14:48;8.85;;;4.90;;
39540;SDS011;25219;52.244;21.006;2022-09-09T05:17:13;18.88;;;5.10;;
39540;SDS011;25219;52.244;21.006;2022-09-09T05:19:38;7.47;;;4.32;;
39540;SDS011;25219;52.244;21.006;2022-09-09T05:22:03;10.60;;;4.73;;
39540;SDS011;25219;52.244;21.006;2022-09-09T05:24:29;9.15;;;5.53;;
39540;SDS011;25219;52.244;21.006;2022-09-09T05:26:58;6.68;;;3.80;;
39540;SDS011;25219;52.244;21.006;2022-09-09T05:29:24;7.88;;;5.10;;
39540;SDS011;25219;52.244;21.006;2022-09-09T05:31:50;7.07;;;4.30;;
39540;SDS011;25219;52.244;21.006;2022-09-09T05:34:15;8.83;;;5.00;;
39540;SDS011;25219;52.244;21.006;2022-09-09T05:36:40;6.57;;;4.13;;
39540;SDS011;25219;52.244;21.006;2022-09-09T05:39:05;5.90;;;3.90;;
39540;SDS011;25219;52.244;21.006;2022-09-09T05:41:30;6.03;;;4.60;;
39540;SDS011;25219;52.244;21.006;2022-09-09T05:43:56;9.57;;;4.35;;
39540;SDS011;25219;52.244;21.006;2022-09-09T05:46:24;6.28;;;4.88;;
39540;SDS011;25219;52.244;21.006;2022-09-09T05:48:50;7.65;;;4.38;;
39540;SDS011;25219;52.244;21.006;2022-09-09T05:51:18;7.35;;;4.53;;
39540;SDS011;25219;52.244;21.006;2022-09-09T05:53:44;6.50;;;4.18;;
39540;SDS011;25219;52.244;21.006;2022-09-09T05:56:14;9.48;;;4.72;;
39540;SDS011;25219;52.244;21.006;2022-09-09T05:58:39;6.13;;;4.05;;
39540;SDS011;25219;52.244;21.006;2022-09-09T06:01:08;13.07;;;5.22;;
39540;SDS011;25219;52.244;21.006;2022-09-09T06:03:35;12.68;;;4.18;;
39540;SDS011;25219;52.244;21.006;2022-09-09T06:06:00;7.15;;;4.45;;
39540;SDS011;25219;52.244;21.006;2022-09-09T06:08:26;7.57;;;4.13;;
39540;SDS011;25219;52.244;21.006;2022-09-09T06:10:51;9.07;;;4.13;;
39540;SDS011;25219;52.244;21.006;2022-09-09T06:13:17;8.10;;;4.47;;
39540;SDS011;25219;52.244;21.006;2022-09-09T06:15:49;20.20;;;5.47;;
39540;SDS011;25219;52.244;21.006;2022-09-09T06:18:14;13.32;;;4.55;;
39540;SDS011;25219;52.244;21.006;2022-09-09T06:20:42;10.02;;;4.22;;
39540;SDS011;25219;52.244;21.006;2022-09-09T06:23:08;5.60;;;4.10;;
39540;SDS011;25219;52.244;21.006;2022-09-09T06:25:33;12.90;;;4.30;;
39540;SDS011;25219;52.244;21.006;2022-09-09T06:27:59;8.65;;;4.72;;
39540;SDS011;25219;52.244;21.006;2022-09-09T06:30:24;7.18;;;4.22;;
39540;SDS011;25219;52.244;21.006;2022-09-09T06:32:49;7.87;;;4.23;;
39540;SDS011;25219;52.244;21.006;2022-09-09T06:35:15;6.80;;;4.38;;
39540;SDS011;25219;52.244;21.006;2022-09-09T06:37:44;13.83;;;4.60;;
39540;SDS011;25219;52.244;21.006;2022-09-09T06:40:09;5.15;;;4.10;;
39540;SDS011;25219;52.244;21.006;2022-09-09T06:42:35;8.30;;;4.75;;
39540;SDS011;25219;52.244;21.006;2022-09-09T06:45:00;12.87;;;5.27;;
39540;SDS011;25219;52.244;21.006;2022-09-09T06:47:25;8.52;;;6.07;;
39540;SDS011;25219;52.244;21.006;2022-09-09T06:49:52;10.15;;;5.95;;
39540;SDS011;25219;52.244;21.006;2022-09-09T06:52:17;10.48;;;5.00;;
39540;SDS011;25219;52.244;21.006;2022-09-09T06:54:43;11.88;;;5.47;;
39540;SDS011;25219;52.244;21.006;2022-09-09T06:57:08;15.45;;;6.00;;
39540;SDS011;25219;52.244;21.006;2022-09-09T06:59:33;14.20;;;5.15;;
39540;SDS011;25219;52.244;21.006;2022-09-09T07:01:58;12.60;;;5.33;;
39540;SDS011;25219;52.244;21.006;2022-09-09T07:04:24;11.20;;;5.33;;
39540;SDS011;25219;52.244;21.006;2022-09-09T07:06:50;7.65;;;5.13;;
39540;SDS011;25219;52.244;21.006;2022-09-09T07:09:17;7.80;;;5.18;;
39540;SDS011;25219;52.244;21.006;2022-09-09T07:11:43;8.75;;;5.53;;
39540;SDS011;25219;52.244;21.006;2022-09-09T07:14:08;30.77;;;6.55;;
39540;SDS011;25219;52.244;21.006;2022-09-09T07:16:34;14.20;;;6.30;;
39540;SDS011;25219;52.244;21.006;2022-09-09T07:19:02;9.57;;;5.93;;
39540;SDS011;25219;52.244;21.006;2022-09-09T07:21:28;11.48;;;6.57;;
39540;SDS011;25219;52.244;21.006;2022-09-09T07:23:54;11.05;;;6.50;;
39540;SDS011;25219;52.244;21.006;2022-09-09T07:26:20;13.02;;;6.30;;
39540;SDS011;25219;52.244;21.006;2022-09-09T07:28:46;11.93;;;6.72;;
39540;SDS011;25219;52.244;21.006;2022-09-09T07:31:19;8.77;;;6.10;;
39540;SDS011;25219;52.244;21.006;2022-09-09T07:33:45;48.22;;;7.22;;
39540;SDS011;25219;52.244;21.006;2022-09-09T07:36:18;11.32;;;6.13;;
39540;SDS011;25219;52.244;21.006;2022-09-09T07:38:47;10.85;;;6.88;;
39540;SDS011;25219;52.244;21.006;2022-09-09T07:41:16;17.10;;;6.15;;
39540;SDS011;25219;52.244;21.006;2022-09-09T07:43:42;12.75;;;6.82;;
39540;SDS011;25219;52.244;21.006;2022-09-09T07:46:08;14.13;;;7.30;;
39540;SDS011;25219;52.244;21.006;2022-09-09T07:48:34;12.45;;;7.00;;
39540;SDS011;25219;52.244;21.006;2022-09-09T07:51:06;13.05;;;7.22;;
39540;SDS011;25219;52.244;21.006;2022-09-09T07:53:32;12.07;;;7.47;;
39540;SDS011;25219;52.244;21.006;2022-09-09T07:56:08;13.37;;;7.30;;
39540;SDS011;25219;52.244;21.006;2022-09-09T07:58:34;11.27;;;7.05;;
39540;SDS011;25219;52.244;21.006;2022-09-09T08:00:59;12.85;;;7.15;;
39540;SDS011;25219;52.244;21.006;2022-09-09T08:03:24;13.95;;;7.05;;
39540;SDS011;25219;52.244;21.006;2022-09-09T08:05:50;11.98;;;7.63;;
39540;SDS011;25219;52.244;21.006;2022-09-09T08:08:15;15.83;;;7.60;;
39540;SDS011;25219;52.244;21.006;2022-09-09T08:10:41;12.77;;;7.80;;
39540;SDS011;25219;52.244;21.006;2022-09-09T08:13:06;17.53;;;8.03;;
39540;SDS011;25219;52.244;21.006;2022-09-09T08:15:33;11.73;;;7.60;;
39540;SDS011;25219;52.244;21.006;2022-09-09T08:17:59;13.40;;;9.13;;
39540;SDS011;25219;52.244;21.006;2022-09-09T08:20:24;19.42;;;8.82;;
39540;SDS011;25219;52.244;21.006;2022-09-09T08:22:50;16.43;;;8.83;;
39540;SDS011;25219;52.244;21.006;2022-09-09T08:25:15;12.35;;;8.02;;
39540;SDS011;25219;52.244;21.006;2022-09-09T08:27:40;14.32;;;8.15;;
39540;SDS011;25219;52.244;21.006;2022-09-09T08:30:06;13.82;;;8.48;;
39540;SDS011;25219;52.244;21.006;2022-09-09T08:32:31;16.08;;;8.77;;
39540;SDS011;25219;52.244;21.006;2022-09-09T08:34:56;19.27;;;10.20;;
39540;SDS011;25219;52.244;21.006;2022-09-09T08:37:22;14.85;;;9.48;;
39540;SDS011;25219;52.244;21.006;2022-09-09T08:39:47;17.60;;;9.37;;
39540;SDS011;25219;52.244;21.006;2022-09-09T08:49:43;20.10;;;9.40;;
39540;SDS011;25219;52.244;21.006;2022-09-09T08:52:25;17.60;;;9.38;;
39540;SDS011;25219;52.244;21.006;2022-09-09T08:54:52;17.60;;;9.40;;
39540;SDS011;25219;52.244;21.006;2022-09-09T08:57:21;17.73;;;9.82;;
39540;SDS011;25219;52.244;21.006;2022-09-09T08:59:51;16.75;;;10.02;;
39540;SDS011;25219;52.244;21.006;2022-09-09T09:04:47;19.98;;;10.38;;
39540;SDS011;25219;52.244;21.006;2022-09-09T09:07:21;23.45;;;12.40;;
39540;SDS011;25219;52.244;21.006;2022-09-09T09:10:02;26.70;;;11.20;;
39540;SDS011;25219;52.244;21.006;2022-09-09T09:14:54;15.98;;;10.50;;
39540;SDS011;25219;52.244;21.006;2022-09-09T09:17:24;18.85;;;10.98;;
39540;SDS011;25219;52.244;21.006;2022-09-09T09:19:50;20.38;;;12.88;;
39540;SDS011;25219;52.244;21.006;2022-09-09T09:25:02;16.70;;;11.55;;
39540;SDS011;25219;52.244;21.006;2022-09-09T09:30:18;36.33;;;13.48;;
39540;SDS011;25219;52.244;21.006;2022-09-09T09:32:50;18.17;;;11.57;;
39540;SDS011;25219;52.244;21.006;2022-09-09T09:35:17;37.67;;;15.20;;
39540;SDS011;25219;52.244;21.006;2022-09-09T09:37:42;37.17;;;13.27;;
39540;SDS011;25219;52.244;21.006;2022-09-09T09:40:13;24.77;;;14.23;;
39540;SDS011;25219;52.244;21.006;2022-09-09T09:42:47;26.70;;;13.32;;
39540;SDS011;25219;52.244;21.006;2022-09-09T09:45:15;31.67;;;13.68;;
39540;SDS011;25219;52.244;21.006;2022-09-09T09:47:41;21.00;;;12.90;;
39540;SDS011;25219;52.244;21.006;2022-09-09T09:50:16;27.88;;;12.90;;
39540;SDS011;25219;52.244;21.006;2022-09-09T09:52:41;35.35;;;12.77;;
39540;SDS011;25219;52.244;21.006;2022-09-09T09:55:12;34.38;;;14.45;;
39540;SDS011;25219;52.244;21.006;2022-09-09T09:57:38;30.98;;;13.10;;
39540;SDS011;25219;52.244;21.006;2022-09-09T10:00:14;68.68;;;15.63;;
39540;SDS011;25219;52.244;21.006;2022-09-09T10:02:41;34.53;;;14.38;;
39540;SDS011;25219;52.244;21.006;2022-09-09T10:05:21;33.42;;;13.60;;
39540;SDS011;25219;52.244;21.006;2022-09-09T10:08:00;24.20;;;14.15;;
39540;SDS011;25219;52.244;21.006;2022-09-09T10:10:28;26.05;;;12.85;;
39540;SDS011;25219;52.244;21.006;2022-09-09T10:13:03;23.23;;;12.70;;
39540;SDS011;25219;52.244;21.006;2022-09-09T10:18:20;36.40;;;14.98;;
39540;SDS011;25219;52.244;21.006;2022-09-09T10:28:40;27.60;;;14.93;;
39540;SDS011;25219;52.244;21.006;2022-09-09T10:33:47;27.83;;;15.23;;
39540;SDS011;25219;52.244;21.006;2022-09-09T10:36:21;25.92;;;15.18;;
39540;SDS011;25219;52.244;21.006;2022-09-09T10:38:47;25.63;;;15.05;;
39540;SDS011;25219;52.244;21.006;2022-09-09T10:41:18;35.92;;;17.83;;
39540;SDS011;25219;52.244;21.006;2022-09-09T10:46:31;39.63;;;18.30;;
39540;SDS011;25219;52.244;21.006;2022-09-09T10:54:05;29.88;;;18.60;;
39540;SDS011;25219;52.244;21.006;2022-09-09T10:56:35;36.80;;;20.17;;
39540;SDS011;25219;52.244;21.006;2022-09-09T10:59:02;34.77;;;18.47;;
39540;SDS011;25219;52.244;21.006;2022-09-09T11:04:16;38.65;;;18.95;;
39540;SDS011;25219;52.244;21.006;2022-09-09T11:06:44;32.17;;;18.70;;
39540;SDS011;25219;52.244;21.006;2022-09-09T11:09:13;31.95;;;17.95;;
39540;SDS011;25219;52.244;21.006;2022-09-09T11:11:59;37.05;;;19.65;;
39540;SDS011;25219;52.244;21.006;2022-09-09T11:17:10;37.85;;;21.38;;
39540;SDS011;25219;52.244;21.006;2022-09-09T11:19:38;35.90;;;20.85;;
39540;SDS011;25219;52.244;21.006;2022-09-09T11:22:27;40.90;;;22.15;;
39540;SDS011;25219;52.244;21.006;2022-09-09T11:24:51;41.22;;;20.55;;
39540;SDS011;25219;52.244;21.006;2022-09-09T11:27:21;44.35;;;20.63;;
39540;SDS011;25219;52.244;21.006;2022-09-09T11:30:10;61.00;;;21.15;;
39540;SDS011;25219;52.244;21.006;2022-09-09T11:32:54;41.40;;;19.80;;
39540;SDS011;25219;52.244;21.006;2022-09-09T11:35:30;57.40;;;21.35;;
39540;SDS011;25219;52.244;21.006;2022-09-09T11:41:01;60.75;;;21.60;;
39540;SDS011;25219;52.244;21.006;2022-09-09T11:43:38;69.75;;;20.48;;
39540;SDS011;25219;52.244;21.006;2022-09-09T11:46:04;38.75;;;19.92;;
39540;SDS011;25219;52.244;21.006;2022-09-09T11:48:37;35.70;;;20.23;;
39540;SDS011;25219;52.244;21.006;2022-09-09T11:53:28;35.92;;;20.40;;
39540;SDS011;25219;52.244;21.006;2022-09-09T11:56:07;42.10;;;20.83;;
39540;SDS011;25219;52.244;21.006;2022-09-09T11:58:36;43.90;;;20.85;;
39540;SDS011;25219;52.244;21.006;2022-09-09T12:01:12;46.58;;;21.52;;
39540;SDS011;25219;52.244;21.006;2022-09-09T12:08:33;40.70;;;21.60;;
39540;SDS011;25219;52.244;21.006;2022-09-09T12:11:01;37.83;;;21.05;;
39540;SDS011;25219;52.244;21.006;2022-09-09T12:13:28;42.83;;;21.63;;
39540;SDS011;25219;52.244;21.006;2022-09-09T12:15:57;38.72;;;22.08;;
39540;SDS011;25219;52.244;21.006;2022-09-09T12:18:24;47.13;;;23.88;;
39540;SDS011;25219;52.244;21.006;2022-09-09T12:21:36;46.40;;;22.90;;
39540;SDS011;25219;52.244;21.006;2022-09-09T12:31:14;46.50;;;22.95;;
39540;SDS011;25219;52.244;21.006;2022-09-09T12:33:42;41.97;;;21.77;;
39540;SDS011;25219;52.244;21.006;2022-09-09T12:36:12;41.17;;;23.63;;
39540;SDS011;25219;52.244;21.006;2022-09-09T12:38:39;43.88;;;23.17;;
39540;SDS011;25219;52.244;21.006;2022-09-09T12:41:04;45.00;;;23.33;;
39540;SDS011;25219;52.244;21.006;2022-09-09T12:43:29;44.97;;;22.40;;
39540;SDS011;25219;52.244;21.006;2022-09-09T12:45:56;40.63;;;22.80;;
39540;SDS011;25219;52.244;21.006;2022-09-09T12:48:25;51.90;;;26.33;;
39540;SDS011;25219;52.244;21.006;2022-09-09T12:50:52;48.45;;;24.30;;
39540;SDS011;25219;52.244;21.006;2022-09-09T12:53:22;50.55;;;24.27;;
39540;SDS011;25219;52.244;21.006;2022-09-09T12:55:52;53.08;;;24.55;;
39540;SDS011;25219;52.244;21.006;2022-09-09T12:58:17;50.58;;;23.02;;
39540;SDS011;25219;52.244;21.006;2022-09-09T13:00:51;55.65;;;24.00;;
39540;SDS011;25219;52.244;21.006;2022-09-09T13:03:21;46.60;;;23.27;;
39540;SDS011;25219;52.244;21.006;2022-09-09T13:05:46;44.50;;;24.03;;
39540;SDS011;25219;52.244;21.006;2022-09-09T13:08:12;51.17;;;22.67;;
39540;SDS011;25219;52.244;21.006;2022-09-09T13:10:40;47.30;;;23.67;;
39540;SDS011;25219;52.244;21.006;2022-09-09T13:13:15;47.85;;;22.63;;
39540;SDS011;25219;52.244;21.006;2022-09-09T13:15:48;44.60;;;22.10;;
39540;SDS011;25219;52.244;21.006;2022-09-09T13:18:21;56.63;;;23.73;;
39540;SDS011;25219;52.244;21.006;2022-09-09T13:20:47;48.88;;;23.85;;
39540;SDS011;25219;52.244;21.006;2022-09-09T13:23:12;47.47;;;22.30;;
39540;SDS011;25219;52.244;21.006;2022-09-09T13:25:39;47.15;;;22.50;;
39540;SDS011;25219;52.244;21.006;2022-09-09T13:28:05;52.20;;;23.08;;
39540;SDS011;25219;52.244;21.006;2022-09-09T13:35:27;69.35;;;23.52;;
39540;SDS011;25219;52.244;21.006;2022-09-09T13:37:52;73.10;;;25.90;;
39540;SDS011;25219;52.244;21.006;2022-09-09T13:40:19;45.35;;;23.25;;
39540;SDS011;25219;52.244;21.006;2022-09-09T13:42:46;48.20;;;21.63;;
39540;SDS011;25219;52.244;21.006;2022-09-09T13:45:15;42.40;;;21.73;;
39540;SDS011;25219;52.244;21.006;2022-09-09T13:47:41;44.00;;;20.92;;
39540;SDS011;25219;52.244;21.006;2022-09-09T13:50:26;50.47;;;21.45;;
39540;SDS011;25219;52.244;21.006;2022-09-09T13:52:52;48.17;;;20.67;;
39540;SDS011;25219;52.244;21.006;2022-09-09T13:55:18;41.78;;;20.40;;
39540;SDS011;25219;52.244;21.006;2022-09-09T13:58:00;42.45;;;21.50;;
39540;SDS011;25219;52.244;21.006;2022-09-09T14:00:29;41.80;;;20.67;;
39540;SDS011;25219;52.244;21.006;2022-09-09T14:02:54;47.45;;;20.60;;
39540;SDS011;25219;52.244;21.006;2022-09-09T14:05:22;43.35;;;20.38;;
39540;SDS011;25219;52.244;21.006;2022-09-09T14:07:48;45.20;;;19.63;;
39540;SDS011;25219;52.244;21.006;2022-09-09T14:10:14;46.33;;;20.02;;
39540;SDS011;25219;52.244;21.006;2022-09-09T14:12:39;45.80;;;20.37;;
39540;SDS011;25219;52.244;21.006;2022-09-09T14:15:05;55.20;;;20.87;;
39540;SDS011;25219;52.244;21.006;2022-09-09T14:17:30;41.58;;;20.48;;
39540;SDS011;25219;52.244;21.006;2022-09-09T14:19:56;60.47;;;21.73;;
39540;SDS011;25219;52.244;21.006;2022-09-09T14:22:22;43.08;;;21.02;;
39540;SDS011;25219;52.244;21.006;2022-09-09T14:24:47;40.70;;;19.30;;
39540;SDS011;25219;52.244;21.006;2022-09-09T14:27:12;42.22;;;19.92;;
39540;SDS011;25219;52.244;21.006;2022-09-09T14:29:38;52.10;;;19.93;;
39540;SDS011;25219;52.244;21.006;2022-09-09T14:32:03;40.47;;;19.90;;
39540;SDS011;25219;52.244;21.006;2022-09-09T14:34:28;62.42;;;20.23;;
39540;SDS011;25219;52.244;21.006;2022-09-09T14:36:53;50.15;;;20.00;;
39540;SDS011;25219;52.244;21.006;2022-09-09T14:39:18;39.17;;;19.17;;
39540;SDS011;25219;52.244;21.006;2022-09-09T14:41:46;37.27;;;18.43;;
39540;SDS011;25219;52.244;21.006;2022-09-09T14:44:14;45.40;;;19.88;;
39540;SDS011;25219;52.244;21.006;2022-09-09T14:46:40;47.55;;;21.70;;
39540;SDS011;25219;52.244;21.006;2022-09-09T14:49:08;43.58;;;19.95;;
39540;SDS011;25219;52.244;21.006;2022-09-09T14:51:35;49.88;;;22.08;;
39540;SDS011;25219;52.244;21.006;2022-09-09T14:54:00;51.97;;;22.65;;
39540;SDS011;25219;52.244;21.006;2022-09-09T14:56:27;43.65;;;23.05;;
39540;SDS011;25219;52.244;21.006;2022-09-09T14:58:53;51.05;;;23.75;;
39540;SDS011;25219;52.244;21.006;2022-09-09T15:01:19;48.20;;;23.42;;
39540;SDS011;25219;52.244;21.006;2022-09-09T15:03:58;45.83;;;21.00;;
39540;SDS011;25219;52.244;21.006;2022-09-09T15:06:24;44.72;;;20.40;;
39540;SDS011;25219;52.244;21.006;2022-09-09T15:08:50;43.80;;;20.23;;
39540;SDS011;25219;52.244;21.006;2022-09-09T15:11:16;41.25;;;20.13;;
39540;SDS011;25219;52.244;21.006;2022-09-09T15:13:42;46.70;;;20.30;;
39540;SDS011;25219;52.244;21.006;2022-09-09T15:16:15;43.65;;;21.38;;
39540;SDS011;25219;52.244;21.006;2022-09-09T15:18:40;45.28;;;21.40;;
39540;SDS011;25219;52.244;21.006;2022-09-09T15:21:13;48.75;;;20.75;;
39540;SDS011;25219;52.244;21.006;2022-09-09T15:23:38;46.40;;;21.95;;
39540;SDS011;25219;52.244;21.006;2022-09-09T15:26:04;46.97;;;21.65;;
39540;SDS011;25219;52.244;21.006;2022-09-09T15:28:31;46.08;;;21.65;;
39540;SDS011;25219;52.244;21.006;2022-09-09T15:30:56;47.20;;;21.33;;
39540;SDS011;25219;52.244;21.006;2022-09-09T15:33:24;39.65;;;19.95;;
39540;SDS011;25219;52.244;21.006;2022-09-09T15:35:49;40.57;;;20.00;;
39540;SDS011;25219;52.244;21.006;2022-09-09T15:38:16;44.35;;;21.75;;
39540;SDS011;25219;52.244;21.006;2022-09-09T15:40:42;42.28;;;19.77;;
39540;SDS011;25219;52.244;21.006;2022-09-09T15:43:08;48.17;;;22.45;;
39540;SDS011;25219;52.244;21.006;2022-09-09T15:45:34;46.05;;;21.23;;
39540;SDS011;25219;52.244;21.006;2022-09-09T15:48:00;47.30;;;24.90;;
39540;SDS011;25219;52.244;21.006;2022-09-09T15:50:28;43.03;;;21.42;;
39540;SDS011;25219;52.244;21.006;2022-09-09T15:52:55;41.50;;;22.20;;
39540;SDS011;25219;52.244;21.006;2022-09-09T15:55:20;55.03;;;22.50;;
39540;SDS011;25219;52.244;21.006;2022-09-09T15:57:45;45.60;;;21.88;;
39540;SDS011;25219;52.244;21.006;2022-09-09T16:00:11;40.45;;;20.80;;
39540;SDS011;25219;52.244;21.006;2022-09-09T16:02:41;40.22;;;21.08;;
39540;SDS011;25219;52.244;21.006;2022-09-09T16:05:06;40.47;;;20.27;;
39540;SDS011;25219;52.244;21.006;2022-09-09T16:07:31;44.22;;;21.23;;
39540;SDS011;25219;52.244;21.006;2022-09-09T16:09:56;36.30;;;20.13;;